createdAt,value
2017-07-16T00:02:05.193Z,99683.67
2017-07-16T00:04:33.766Z,99686.48
2017-07-16T00:07:03.252Z,99680.57
2017-07-16T00:09:31.420Z,99685.18
2017-07-16T00:12:00.074Z,99682.78
2017-07-16T00:14:28.182Z,99679.76
2017-07-16T00:16:56.490Z,99687.71
2017-07-16T00:19:24.898Z,99686.59
2017-07-16T00:21:53.473Z,99683.24
2017-07-16T00:24:21.575Z,99679.37
2017-07-16T00:26:49.915Z,99681.90
2017-07-16T00:29:18.350Z,99684.25
2017-07-16T00:31:46.454Z,99693.72
2017-07-16T00:34:14.984Z,99692.94
2017-07-16T00:36:43.439Z,99690.16
2017-07-16T00:39:11.503Z,99691.45
2017-07-16T00:41:40.251Z,99689.34
2017-07-16T00:44:08.431Z,99688.32
2017-07-16T00:46:38.063Z,99690.14
2017-07-16T00:49:06.400Z,99686.38
2017-07-16T00:51:35.551Z,99689.39
2017-07-16T00:54:03.978Z,99681.97
2017-07-16T00:56:32.360Z,99688.09
2017-07-16T00:59:00.992Z,99679.37
2017-07-16T01:01:29.455Z,99685.28
2017-07-16T01:03:58.290Z,99689.72
2017-07-16T01:06:26.993Z,99677.27
2017-07-16T01:08:55.586Z,99678.30
2017-07-16T01:11:24.382Z,99678.55
2017-07-16T01:13:52.627Z,99672.92
2017-07-16T01:16:21.304Z,99672.45
2017-07-16T01:18:49.783Z,99667.12
2017-07-16T01:21:18.003Z,99667.52
2017-07-16T01:23:46.255Z,99667.45
2017-07-16T01:26:14.815Z,99671.45
2017-07-16T01:28:43.100Z,99670.89
2017-07-16T01:31:12.013Z,99670.36
2017-07-16T01:33:40.453Z,99665.19
2017-07-16T01:36:08.526Z,99664.34
2017-07-16T01:38:38.261Z,99667.66
2017-07-16T01:41:06.989Z,99671.86
2017-07-16T01:43:36.655Z,99671.53
2017-07-16T01:46:05.056Z,99664.27
2017-07-16T01:48:33.922Z,99659.02
2017-07-16T01:51:02.403Z,99662.30
2017-07-16T01:53:30.618Z,99664.41
2017-07-16T01:55:59.316Z,99660.89
2017-07-16T01:58:28.078Z,99657.80
2017-07-16T02:00:56.470Z,99663.85
2017-07-16T02:03:25.365Z,99657.97
2017-07-16T02:05:53.693Z,99663.21
2017-07-16T02:08:22.295Z,99665.91
2017-07-16T02:10:50.954Z,99672.80
2017-07-16T02:13:19.434Z,99674.39
2017-07-16T02:15:47.955Z,99673.98
2017-07-16T02:18:16.746Z,99683.91
2017-07-16T02:20:45.520Z,99684.66
2017-07-16T02:23:14.234Z,99679.68
2017-07-16T02:25:43.080Z,99677.67
2017-07-16T02:28:11.351Z,99677.50
2017-07-16T02:30:40.043Z,99671.55
2017-07-16T02:33:09.030Z,99676.56
2017-07-16T02:35:37.928Z,99678.05
2017-07-16T02:38:06.222Z,99672.09
2017-07-16T02:40:35.847Z,99678.56
2017-07-16T02:43:04.004Z,99674.31
2017-07-16T02:45:32.450Z,99672.78
2017-07-16T02:48:00.811Z,99672.28
2017-07-16T02:50:29.203Z,99675.49
2017-07-16T02:52:57.267Z,99671.29
2017-07-16T02:55:25.995Z,99673.77
2017-07-16T02:57:54.059Z,99675.67
2017-07-16T03:00:22.191Z,99676.44
2017-07-16T03:02:50.632Z,99681.70
2017-07-16T03:05:19.082Z,99675.31
2017-07-16T03:07:47.341Z,99673.84
2017-07-16T03:10:15.974Z,99668.78
2017-07-16T03:12:44.697Z,99668.42
2017-07-16T03:15:13.472Z,99673.76
2017-07-16T03:17:42.001Z,99681.41
2017-07-16T03:20:10.191Z,99682.62
2017-07-16T03:22:39.768Z,99679.17
2017-07-16T03:25:17.395Z,99679.30
2017-07-16T03:27:45.855Z,99682.68
2017-07-16T03:30:13.931Z,99676.85
2017-07-16T03:32:42.525Z,99677.20
2017-07-16T03:35:10.891Z,99675.51
2017-07-16T03:37:39.966Z,99677.62
2017-07-16T03:40:08.354Z,99678.77
2017-07-16T03:42:39.124Z,99671.36
2017-07-16T03:45:07.691Z,99674.97
2017-07-16T03:47:38.295Z,99670.88
2017-07-16T03:50:06.656Z,99671.81
2017-07-16T03:52:37.247Z,99669.55
2017-07-16T03:55:06.199Z,99669.84
2017-07-16T03:57:35.643Z,99671.82
2017-07-16T04:00:03.766Z,99673.78
2017-07-16T04:02:32.163Z,99668.97
2017-07-16T04:05:00.619Z,99669.06
2017-07-16T04:07:29.044Z,99668.00
2017-07-16T04:09:57.518Z,99668.87
2017-07-16T04:12:25.957Z,99671.38
2017-07-16T04:14:54.308Z,99669.05
2017-07-16T04:17:23.247Z,99667.43
2017-07-16T04:19:51.723Z,99673.57
2017-07-16T04:22:20.171Z,99669.42
2017-07-16T04:24:48.666Z,99674.31
2017-07-16T04:27:17.063Z,99667.17
2017-07-16T04:29:45.235Z,99671.05
2017-07-16T04:32:14.099Z,99668.61
2017-07-16T04:34:42.631Z,99673.00
2017-07-16T04:37:11.136Z,99669.64
2017-07-16T04:39:40.456Z,99671.24
2017-07-16T04:42:08.571Z,99680.95
2017-07-16T04:44:39.412Z,99683.84
2017-07-16T04:47:11.311Z,99679.53
2017-07-16T04:49:40.028Z,99684.41
2017-07-16T04:52:08.098Z,99686.38
2017-07-16T04:54:36.443Z,99684.25
2017-07-16T04:57:04.576Z,99687.28
2017-07-16T04:59:32.689Z,99693.73
2017-07-16T05:02:01.587Z,99690.13
2017-07-16T05:04:29.757Z,99690.64
2017-07-16T05:07:00.204Z,99693.12
2017-07-16T05:09:29.327Z,99694.93
2017-07-16T05:11:57.758Z,99695.69
2017-07-16T05:14:26.365Z,99699.27
2017-07-16T05:16:55.434Z,99694.11
2017-07-16T05:19:23.869Z,99698.41
2017-07-16T05:21:52.437Z,99702.91
2017-07-16T05:24:21.114Z,99698.16
2017-07-16T05:26:49.363Z,99696.37
2017-07-16T05:29:17.571Z,99704.94
2017-07-16T05:31:46.367Z,99698.24
2017-07-16T05:34:14.836Z,99702.92
2017-07-16T05:36:43.235Z,99709.50
2017-07-16T05:39:11.943Z,99705.93
2017-07-16T05:41:40.400Z,99709.26
2017-07-16T05:44:08.764Z,99710.50
2017-07-16T05:46:37.922Z,99713.29
2017-07-16T05:49:06.351Z,99716.80
2017-07-16T05:51:35.648Z,99722.67
2017-07-16T05:54:04.523Z,99722.39
2017-07-16T05:56:32.807Z,99720.49
2017-07-16T05:59:01.512Z,99714.88
2017-07-16T06:01:30.247Z,99713.86
2017-07-16T06:03:58.575Z,99712.55
2017-07-16T06:06:27.126Z,99714.56
2017-07-16T06:08:55.997Z,99709.78
2017-07-16T06:11:24.232Z,99716.27
2017-07-16T06:13:52.707Z,99711.17
2017-07-16T06:16:21.565Z,99705.97
2017-07-16T06:18:49.895Z,99708.56
2017-07-16T06:21:18.511Z,99712.19
2017-07-16T06:23:47.120Z,99710.53
2017-07-16T06:26:15.239Z,99715.58
2017-07-16T06:28:43.591Z,99711.70
2017-07-16T06:31:12.374Z,99717.97
2017-07-16T06:33:40.607Z,99719.31
2017-07-16T06:36:08.676Z,99721.48
2017-07-16T06:38:38.539Z,99724.05
2017-07-16T06:41:06.771Z,99718.72
2017-07-16T06:43:36.616Z,99721.22
2017-07-16T06:46:05.434Z,99719.44
2017-07-16T06:48:33.844Z,99722.30
2017-07-16T06:51:02.425Z,99717.20
2017-07-16T06:53:31.262Z,99713.11
2017-07-16T06:55:59.319Z,99716.03
2017-07-16T06:58:27.811Z,99717.39
2017-07-16T07:00:56.498Z,99718.22
2017-07-16T07:03:24.733Z,99722.86
2017-07-16T07:05:52.902Z,99721.28
2017-07-16T07:08:21.424Z,99717.98
2017-07-16T07:10:50.063Z,99715.67
2017-07-16T07:13:18.530Z,99721.60
2017-07-16T07:15:47.091Z,99719.99
2017-07-16T07:18:15.534Z,99713.79
2017-07-16T07:20:43.672Z,99720.53
2017-07-16T07:23:12.373Z,99713.28
2017-07-16T07:25:40.422Z,99721.86
2017-07-16T07:28:08.498Z,99728.05
2017-07-16T07:30:38.828Z,99722.41
2017-07-16T07:33:06.978Z,99728.56
2017-07-16T07:35:36.786Z,99724.09
2017-07-16T07:38:05.232Z,99734.25
2017-07-16T07:40:33.287Z,99722.03
2017-07-16T07:43:01.362Z,99728.88
2017-07-16T07:45:29.767Z,99732.06
2017-07-16T07:47:57.850Z,99734.37
2017-07-16T07:50:25.950Z,99725.42
2017-07-16T07:52:54.667Z,99726.89
2017-07-16T07:55:22.799Z,99722.55
2017-07-16T07:57:50.854Z,99726.32
2017-07-16T08:00:19.217Z,99729.99
2017-07-16T08:02:47.278Z,99721.84
2017-07-16T08:05:15.810Z,99725.83
2017-07-16T08:07:44.151Z,99727.41
2017-07-16T08:10:12.585Z,99721.16
2017-07-16T08:12:40.655Z,99718.13
2017-07-16T08:15:09.197Z,99716.16
2017-07-16T08:17:40.881Z,99710.64
2017-07-16T08:20:09.084Z,99714.16
2017-07-16T08:22:39.181Z,99709.25
2017-07-16T08:25:07.739Z,99707.89
2017-07-16T08:27:37.529Z,99697.47
2017-07-16T08:30:06.355Z,99697.60
2017-07-16T08:32:35.280Z,99697.34
2017-07-16T08:35:03.382Z,99696.77
2017-07-16T08:37:31.707Z,99700.81
2017-07-16T08:39:59.793Z,99696.03
2017-07-16T08:42:27.856Z,99695.61
2017-07-16T08:44:56.203Z,99703.15
2017-07-16T08:47:24.272Z,99704.42
2017-07-16T08:49:52.331Z,99702.31
2017-07-16T08:52:20.727Z,99701.09
2017-07-16T08:54:48.812Z,99701.47
2017-07-16T08:57:16.880Z,99697.14
2017-07-16T08:59:45.388Z,99695.25
2017-07-16T09:02:13.559Z,99689.72
2017-07-16T09:04:41.640Z,99682.32
2017-07-16T09:07:10.013Z,99688.37
2017-07-16T09:09:38.924Z,99685.49
2017-07-16T09:12:06.996Z,99689.84
2017-07-16T09:14:37.214Z,99683.28
2017-07-16T09:17:05.368Z,99688.63
2017-07-16T09:19:33.490Z,99688.03
2017-07-16T09:22:02.499Z,99685.89
2017-07-16T09:24:30.643Z,99687.36
2017-07-16T09:26:58.743Z,99688.75
2017-07-16T09:29:27.094Z,99687.23
2017-07-16T09:31:55.174Z,99683.43
2017-07-16T09:34:23.373Z,99675.98
2017-07-16T09:36:51.715Z,99678.64
2017-07-16T09:39:19.842Z,99679.14
2017-07-16T09:41:47.924Z,99681.36
2017-07-16T09:44:16.318Z,99682.30
2017-07-16T09:46:44.439Z,99680.14
2017-07-16T09:49:12.620Z,99676.52
2017-07-16T09:51:41.013Z,99682.16
2017-07-16T09:54:09.086Z,99676.64
2017-07-16T09:56:38.196Z,99677.73
2017-07-16T09:59:06.589Z,99680.52
2017-07-16T10:01:35.578Z,99678.82
2017-07-16T10:04:03.666Z,99672.54
2017-07-16T10:06:32.105Z,99677.75
2017-07-16T10:09:00.234Z,99665.73
2017-07-16T10:11:28.935Z,99669.61
2017-07-16T10:13:57.544Z,99668.05
2017-07-16T10:16:25.731Z,99671.77
2017-07-16T10:18:53.823Z,99666.81
2017-07-16T10:21:22.305Z,99671.05
2017-07-16T10:23:50.424Z,99670.87
2017-07-16T10:26:18.571Z,99670.50
2017-07-16T10:28:46.955Z,99682.03
2017-07-16T10:31:15.209Z,99677.13
2017-07-16T10:33:43.671Z,99675.23
2017-07-16T10:36:12.693Z,99674.21
2017-07-16T10:38:40.763Z,99672.27
2017-07-16T10:41:08.906Z,99665.80
2017-07-16T10:43:40.484Z,99667.45
2017-07-16T10:46:08.549Z,99668.77
2017-07-16T10:48:38.201Z,99653.03
2017-07-16T10:51:06.611Z,99658.87
2017-07-16T10:53:35.566Z,99662.22
2017-07-16T10:56:03.703Z,99654.48
2017-07-16T10:58:32.090Z,99646.53
2017-07-16T11:01:00.184Z,99651.57
2017-07-16T11:03:28.251Z,99651.37
2017-07-16T11:05:56.611Z,99644.64
2017-07-16T11:08:24.783Z,99643.91
2017-07-16T11:10:52.851Z,99638.98
2017-07-16T11:13:21.266Z,99630.81
2017-07-16T11:15:49.356Z,99636.08
2017-07-16T11:18:17.414Z,99628.48
2017-07-16T11:20:45.754Z,99625.06
2017-07-16T11:23:13.829Z,99626.05
2017-07-16T11:25:41.883Z,99625.34
2017-07-16T11:28:10.256Z,99618.33
2017-07-16T11:30:39.035Z,99615.30
2017-07-16T11:33:07.143Z,99610.52
2017-07-16T11:35:36.682Z,99615.27
2017-07-16T11:38:04.730Z,99604.73
2017-07-16T11:40:32.840Z,99608.29
2017-07-16T11:43:01.298Z,99610.09
2017-07-16T11:45:29.378Z,99604.07
2017-07-16T11:47:57.490Z,99593.27
2017-07-16T11:50:25.871Z,99595.21
2017-07-16T11:52:53.947Z,99594.34
2017-07-16T11:55:22.045Z,99593.38
2017-07-16T11:57:50.407Z,99592.30
2017-07-16T12:00:18.548Z,99594.79
2017-07-16T12:02:46.604Z,99590.60
2017-07-16T12:05:14.990Z,99585.61
2017-07-16T12:07:43.161Z,99590.42
2017-07-16T12:10:11.280Z,99585.36
2017-07-16T12:12:39.656Z,99582.95
2017-07-16T12:15:07.789Z,99585.48
2017-07-16T12:17:37.721Z,99573.95
2017-07-16T12:20:06.330Z,99574.33
2017-07-16T12:22:36.533Z,99576.35
2017-07-16T12:25:06.183Z,99575.70
2017-07-16T12:27:35.354Z,99564.41
2017-07-16T12:30:03.893Z,99564.67
2017-07-16T12:32:31.975Z,99559.70
2017-07-16T12:35:00.352Z,99554.06
2017-07-16T12:37:28.522Z,99564.19
2017-07-16T12:39:56.660Z,99560.78
2017-07-16T12:42:25.089Z,99557.47
2017-07-16T12:44:53.211Z,99556.84
2017-07-16T12:47:21.274Z,99554.27
2017-07-16T12:49:49.622Z,99555.46
2017-07-16T12:52:17.674Z,99554.65
2017-07-16T12:54:45.747Z,99549.99
2017-07-16T12:57:14.125Z,99565.41
2017-07-16T12:59:42.180Z,99549.46
2017-07-16T13:02:10.262Z,99548.63
2017-07-16T13:04:39.137Z,99553.01
2017-07-16T13:07:07.249Z,99542.42
2017-07-16T13:09:36.819Z,99543.56
2017-07-16T13:12:05.224Z,99550.80
2017-07-16T13:14:33.328Z,99540.59
2017-07-16T13:17:01.406Z,99541.44
2017-07-16T13:19:29.877Z,99548.47
2017-07-16T13:21:57.987Z,99546.98
2017-07-16T13:24:26.122Z,99542.37
2017-07-16T13:26:54.470Z,99549.41
2017-07-16T13:29:22.742Z,99541.95
2017-07-16T13:31:50.822Z,99545.91
2017-07-16T13:34:19.200Z,99542.01
2017-07-16T13:36:47.294Z,99545.98
2017-07-16T13:39:15.479Z,99544.52
2017-07-16T13:41:43.892Z,99547.31
2017-07-16T13:44:11.988Z,99546.65
2017-07-16T13:46:40.202Z,99545.19
2017-07-16T13:49:08.586Z,99544.88
2017-07-16T13:51:36.680Z,99537.94
2017-07-16T13:54:04.752Z,99528.47
2017-07-16T13:56:33.134Z,99536.23
2017-07-16T13:59:01.247Z,99532.50
2017-07-16T14:01:29.520Z,99529.55
2017-07-16T14:03:57.954Z,99533.38
2017-07-16T14:06:26.095Z,99530.55
2017-07-16T14:08:54.167Z,99526.44
2017-07-16T14:11:22.827Z,99530.24
2017-07-16T14:13:50.890Z,99539.06
2017-07-16T14:16:18.955Z,99530.10
2017-07-16T14:18:47.288Z,99534.03
2017-07-16T14:21:15.357Z,99534.20
2017-07-16T14:23:43.614Z,99532.88
2017-07-16T14:26:11.984Z,99531.39
2017-07-16T14:28:40.440Z,99526.27
2017-07-16T14:31:08.906Z,99527.17
2017-07-16T14:33:38.582Z,99525.81
2017-07-16T14:36:06.716Z,99535.92
2017-07-16T14:38:35.656Z,99532.12
2017-07-16T14:41:04.060Z,99531.55
2017-07-16T14:43:32.144Z,99531.45
2017-07-16T14:46:00.224Z,99529.63
2017-07-16T14:48:28.632Z,99530.41
2017-07-16T14:50:56.690Z,99528.67
2017-07-16T14:53:24.847Z,99516.27
2017-07-16T14:55:53.248Z,99525.64
2017-07-16T14:58:22.526Z,99523.47
2017-07-16T15:00:50.598Z,99522.27
2017-07-16T15:03:19.150Z,99521.99
2017-07-16T15:05:47.268Z,99520.95
2017-07-16T15:08:15.352Z,99517.86
2017-07-16T15:10:43.740Z,99516.29
2017-07-16T15:13:12.107Z,99513.99
2017-07-16T15:15:40.210Z,99513.70
2017-07-16T15:18:08.607Z,99510.81
2017-07-16T15:20:38.250Z,99514.77
2017-07-16T15:23:06.358Z,99503.31
2017-07-16T15:25:35.950Z,99510.88
2017-07-16T15:28:04.046Z,99500.43
2017-07-16T15:30:32.124Z,99497.48
2017-07-16T15:33:00.452Z,99490.98
2017-07-16T15:35:28.523Z,99491.58
2017-07-16T15:37:56.730Z,99490.62
2017-07-16T15:40:25.133Z,99489.88
2017-07-16T15:42:53.328Z,99486.33
2017-07-16T15:45:21.408Z,99483.23
2017-07-16T15:47:49.792Z,99485.59
2017-07-16T15:50:18.435Z,99480.83
2017-07-16T15:52:46.495Z,99479.81
2017-07-16T15:55:14.927Z,99485.55
2017-07-16T15:57:43.056Z,99482.39
2017-07-16T16:00:11.206Z,99488.23
2017-07-16T16:02:39.676Z,99486.61
2017-07-16T16:05:07.771Z,99474.12
2017-07-16T16:07:37.560Z,99474.91
2017-07-16T16:10:06.021Z,99477.88
2017-07-16T16:12:34.095Z,99471.94
2017-07-16T16:15:02.195Z,99464.77
2017-07-16T16:17:30.555Z,99463.69
2017-07-16T16:19:58.694Z,99465.59
2017-07-16T16:22:26.773Z,99465.70
2017-07-16T16:28:26.396Z,99459.08
2017-07-16T16:30:54.816Z,99461.89
2017-07-16T16:33:22.995Z,99456.47
2017-07-16T16:35:51.120Z,99462.20
2017-07-16T16:38:19.539Z,99453.33
2017-07-16T16:40:47.803Z,99461.44
2017-07-16T16:43:15.887Z,99456.22
2017-07-16T16:45:44.293Z,99458.83
2017-07-16T16:48:12.424Z,99459.72
2017-07-16T16:50:40.474Z,99456.12
2017-07-16T16:53:08.815Z,99453.72
2017-07-16T16:55:36.910Z,99458.94
2017-07-16T16:58:05.346Z,99459.47
2017-07-16T17:00:33.783Z,99461.61
2017-07-16T17:03:01.886Z,99452.41
2017-07-16T17:05:29.952Z,99450.74
2017-07-16T17:07:58.358Z,99455.34
2017-07-16T17:10:26.455Z,99454.76
2017-07-16T17:12:54.521Z,99450.53
2017-07-16T17:15:22.899Z,99446.56
2017-07-16T17:17:50.975Z,99448.19
2017-07-16T17:20:19.076Z,99446.67
2017-07-16T17:22:47.642Z,99445.63
2017-07-16T17:25:16.187Z,99455.80
2017-07-16T17:27:44.250Z,99455.05
2017-07-16T17:30:12.807Z,99452.01
2017-07-16T17:32:40.882Z,99451.23
2017-07-16T17:35:08.968Z,99454.67
2017-07-16T17:37:37.384Z,99452.59
2017-07-16T17:40:05.591Z,99451.30
2017-07-16T17:42:33.694Z,99448.14
2017-07-16T17:45:02.132Z,99451.38
2017-07-16T17:47:30.180Z,99454.55
2017-07-16T17:49:58.277Z,99450.17
2017-07-16T17:52:26.673Z,99456.36
2017-07-16T17:54:54.780Z,99448.62
2017-07-16T17:57:22.844Z,99447.67
2017-07-16T17:59:51.213Z,99453.88
2017-07-16T18:02:19.328Z,99452.01
2017-07-16T18:04:47.437Z,99449.70
2017-07-16T18:07:15.809Z,99451.47
2017-07-16T18:09:43.973Z,99452.56
2017-07-16T18:12:12.031Z,99449.70
2017-07-16T18:14:40.406Z,99451.48
2017-07-16T18:17:08.504Z,99452.48
2017-07-16T18:19:36.630Z,99450.64
2017-07-16T18:22:05.096Z,99450.16
2017-07-16T18:24:33.483Z,99452.86
2017-07-16T18:27:01.715Z,99449.84
2017-07-16T18:29:30.162Z,99449.06
2017-07-16T18:31:58.327Z,99451.92
2017-07-16T18:34:26.902Z,99447.48
2017-07-16T18:36:55.383Z,99445.59
2017-07-16T18:39:23.569Z,99449.85
2017-07-16T18:41:51.727Z,99445.92
2017-07-16T18:44:20.298Z,99448.39
2017-07-16T18:46:48.600Z,99454.45
2017-07-16T18:49:16.779Z,99451.22
2017-07-16T18:51:45.181Z,99450.17
2017-07-16T18:54:13.262Z,99455.86
2017-07-16T18:56:41.343Z,99456.55
2017-07-16T18:59:09.747Z,99454.92
2017-07-16T19:01:37.808Z,99460.45
2017-07-16T19:04:05.958Z,99463.75
2017-07-16T19:06:35.197Z,99462.34
2017-07-16T19:09:03.510Z,99466.77
2017-07-16T19:11:31.671Z,99468.67
2017-07-16T19:14:00.453Z,99465.16
2017-07-16T19:16:29.005Z,99471.19
2017-07-16T19:18:57.525Z,99466.80
2017-07-16T19:21:26.010Z,99467.93
2017-07-16T19:23:54.188Z,99467.09
2017-07-16T19:26:22.618Z,99470.73
2017-07-16T19:28:51.176Z,99471.61
2017-07-16T19:31:21.882Z,99478.47
2017-07-16T19:33:50.081Z,99474.28
2017-07-16T19:36:21.563Z,99473.58
2017-07-16T19:38:50.316Z,99481.92
2017-07-16T19:41:19.396Z,99481.79
2017-07-16T19:43:47.993Z,99486.88
2017-07-16T19:46:16.222Z,99481.38
2017-07-16T19:48:44.327Z,99486.78
2017-07-16T19:51:12.739Z,99483.37
2017-07-16T19:53:40.825Z,99485.42
2017-07-16T19:56:08.911Z,99489.30
2017-07-16T19:58:37.270Z,99484.59
2017-07-16T20:01:05.384Z,99490.94
2017-07-16T20:03:33.462Z,99485.84
2017-07-16T20:06:01.941Z,99485.17
2017-07-16T20:08:30.078Z,99482.46
2017-07-16T20:10:58.127Z,99492.83
2017-07-16T20:13:26.935Z,99489.63
2017-07-16T20:15:55.040Z,99489.33
2017-07-16T20:18:23.096Z,99484.48
2017-07-16T20:20:51.639Z,99487.27
2017-07-16T20:23:22.008Z,99488.23
2017-07-16T20:25:50.068Z,99490.73
2017-07-16T20:28:19.911Z,99487.27
2017-07-16T20:30:48.011Z,99486.48
2017-07-16T20:33:16.114Z,99488.31
2017-07-16T20:35:44.481Z,99495.63
2017-07-16T20:38:12.546Z,99493.40
2017-07-16T20:40:40.615Z,99493.84
2017-07-16T20:43:09.006Z,99491.67
2017-07-16T20:45:37.170Z,99484.94
2017-07-16T20:48:05.287Z,99485.11
2017-07-16T20:50:33.634Z,99490.07
2017-07-16T20:53:01.786Z,99492.53
2017-07-16T20:55:29.886Z,99485.63
2017-07-16T20:57:58.699Z,99490.47
2017-07-16T21:00:27.232Z,99482.31
2017-07-16T21:02:55.314Z,99483.70
2017-07-16T21:05:23.681Z,99484.26
2017-07-16T21:07:52.468Z,99479.75
2017-07-16T21:10:21.572Z,99476.95
2017-07-16T21:12:50.328Z,99482.14
2017-07-16T21:15:19.564Z,99479.94
2017-07-16T21:17:47.758Z,99476.78
2017-07-16T21:20:16.152Z,99483.88
2017-07-16T21:22:44.558Z,99478.94
2017-07-16T21:25:12.663Z,99476.83
2017-07-16T21:27:41.208Z,99471.43
2017-07-16T21:30:09.850Z,99473.66
2017-07-16T21:32:37.899Z,99465.79
2017-07-16T21:35:06.283Z,99459.47
2017-07-16T21:37:34.391Z,99458.34
2017-07-16T21:40:02.466Z,99450.95
2017-07-16T21:42:30.830Z,99462.77
2017-07-16T21:44:58.890Z,99465.48
2017-07-16T21:47:27.314Z,99473.53
2017-07-16T21:49:55.923Z,99470.83
2017-07-16T21:52:23.979Z,99472.42
2017-07-16T21:54:52.052Z,99469.91
2017-07-16T21:57:22.131Z,99471.12
2017-07-16T21:59:50.263Z,99464.45
2017-07-16T22:02:19.688Z,99471.86
2017-07-16T22:04:48.214Z,99462.08
2017-07-16T22:07:16.344Z,99462.54
2017-07-16T22:09:44.552Z,99467.67
2017-07-16T22:12:12.914Z,99464.73
2017-07-16T22:14:41.031Z,99464.13
2017-07-16T22:17:09.099Z,99460.48
2017-07-16T22:19:37.513Z,99464.11
2017-07-16T22:22:05.604Z,99469.52
2017-07-16T22:24:34.146Z,99464.62
2017-07-16T22:27:02.531Z,99463.22
2017-07-16T22:29:30.900Z,99463.40
2017-07-16T22:31:58.962Z,99459.95
2017-07-16T22:34:27.439Z,99461.63
2017-07-16T22:36:55.543Z,99467.98
2017-07-16T22:39:25.718Z,99470.95
2017-07-16T22:41:54.075Z,99470.53
2017-07-16T22:44:22.518Z,99468.67
2017-07-16T22:46:51.367Z,99462.19
2017-07-16T22:49:22.119Z,99463.62
2017-07-16T22:51:50.784Z,99465.35
2017-07-16T22:54:20.675Z,99465.67
2017-07-16T22:56:49.098Z,99468.72
2017-07-16T22:59:17.474Z,99472.11
2017-07-16T23:01:46.467Z,99467.80
2017-07-16T23:04:14.831Z,99467.70
2017-07-16T23:06:43.294Z,99464.26
2017-07-16T23:09:11.327Z,99466.80
2017-07-16T23:11:39.699Z,99467.99
2017-07-16T23:14:07.783Z,99469.75
2017-07-16T23:16:35.871Z,99463.54
2017-07-16T23:19:04.541Z,99461.27
2017-07-16T23:21:32.580Z,99457.46
2017-07-16T23:24:01.219Z,99458.31
2017-07-16T23:26:30.031Z,99463.19
2017-07-16T23:28:58.343Z,99462.67
2017-07-16T23:31:27.107Z,99463.27
2017-07-16T23:33:55.655Z,99460.50
2017-07-16T23:36:24.026Z,99457.11
2017-07-16T23:38:52.624Z,99454.59
2017-07-16T23:41:21.839Z,99457.19
2017-07-16T23:43:50.310Z,99454.58
2017-07-16T23:46:19.658Z,99454.64
2017-07-16T23:48:48.326Z,99454.54
2017-07-16T23:51:16.415Z,99452.95
2017-07-16T23:53:44.527Z,99451.78
2017-07-16T23:56:13.252Z,99445.64
2017-07-16T23:58:41.621Z,99445.90
